Time;durP1;ratioP1;P1;durP2;ratioP2;P2;SDS_P1;SDS_P2;PMS_P1;PMS_P2;Temp;Humidity;BMP_temperature;BMP_pressure;BME280_temperature;BME280_humidity;BME280_pressure;Samples;Min_cycle;Max_cycle;Signal;HPM_P1;HPM_P2
2022/09/08 00:02:31;;;;;;;;;;;;;;;;;;;;;
2022/09/08 00:05:10;;;;;;;4.97;4.63;;;;;;;;;;6250580;23;20354;-92
2022/09/08 00:08:13;;;;;;;5.07;4.78;;;;;;;;;;6238693;23;20354;-96
2022/09/08 00:14:44;;;;;;;4.15;4.03;;;;;;;;;;6175226;23;20346;-94
2022/09/08 00:38:40;;;;;;;4.82;4.72;;;;;;;;;;6104952;23;20361;-94
2022/09/08 00:41:49;;;;;;;;;;;;;;;;;;;;;
2022/09/08 00:45:00;;;;;;;4.88;4.68;;;;;;;;;;6161815;23;20388;-95
2022/09/08 00:50:54;;;;;;;5.78;5.57;;;;;;;;;;6043951;23;20445;-95
2022/09/08 00:53:37;;;;;;;;;;;;;;;;;;;;;
2022/09/08 00:56:27;;;;;;;6.00;5.60;;;;;;;;;;6048762;23;20401;-95
2022/09/08 01:24:52;;;;;;;5.70;5.50;;;;;;;;;;6258464;23;20343;-95
2022/09/08 01:34:05;;;;;;;6.53;6.32;;;;;;;;;;6171100;23;20378;-94
2022/09/08 01:36:41;;;;;;;6.95;6.40;;;;;;;;;;6238471;23;20487;-93
2022/09/08 01:39:07;;;;;;;7.07;6.57;;;;;;;;;;6232559;23;20365;-94
2022/09/08 01:41:39;;;;;;;6.93;6.57;;;;;;;;;;6242562;23;20369;-93
2022/09/08 01:48:05;;;;;;;6.47;6.17;;;;;;;;;;6113381;23;20373;-94
2022/09/08 01:50:52;;;;;;;6.28;5.88;;;;;;;;;;6234909;23;20337;-95
2022/09/08 01:53:26;;;;;;;7.07;6.78;;;;;;;;;;6237334;23;20385;-94
2022/09/08 01:56:26;;;;;;;;;;;;;;;;;;;;;
2022/09/08 02:05:25;;;;;;;6.15;5.82;;;;;;;;;;6256747;23;20358;-94
2022/09/08 02:08:10;;;;;;;6.32;6.03;;;;;;;;;;6230276;23;20349;-95
2022/09/08 02:13:57;;;;;;;6.20;5.90;;;;;;;;;;6254719;23;20385;-93
2022/09/08 02:16:52;;;;;;;;;;;;;;;;;;;;;
2022/09/08 02:22:28;;;;;;;6.20;5.90;;;;;;;;;;6251235;23;20341;-94
2022/09/08 02:24:54;;;;;;;6.22;5.95;;;;;;;;;;6233282;23;20366;-91
2022/09/08 02:27:25;;;;;;;6.50;6.10;;;;;;;;;;6255940;23;20377;-94
2022/09/08 02:30:07;;;;;;;6.22;5.82;;;;;;;;;;6221683;23;20829;-94
2022/09/08 02:35:52;;;;;;;6.95;5.85;;;;;;;;;;6248907;22;20411;-96
2022/09/08 02:44:13;;;;;;;6.28;6.18;;;;;;;;;;6264790;23;20365;-95
2022/09/08 02:46:51;;;;;;;6.35;6.05;;;;;;;;;;6239758;23;20368;-96
2022/09/08 02:49:33;;;;;;;;;;;;;;;;;;;;;
2022/09/08 02:52:07;;;;;;;5.70;5.20;;;;;;;;;;6264997;23;20374;-96
2022/09/08 02:54:39;;;;;;;6.22;5.82;;;;;;;;;;6240618;23;20362;-96
2022/09/08 02:57:15;;;;;;;6.03;5.72;;;;;;;;;;6237003;23;20344;-96
2022/09/08 02:59:51;;;;;;;6.05;5.60;;;;;;;;;;6240764;23;20330;-91
2022/09/08 03:02:26;;;;;;;6.47;5.88;;;;;;;;;;6237778;23;20424;-95
2022/09/08 03:04:56;;;;;;;6.25;5.75;;;;;;;;;;6238618;23;20342;-94
2022/09/08 03:07:46;;;;;;;5.00;4.60;;;;;;;;;;6236415;23;20357;-96
2022/09/08 03:10:12;;;;;;;4.03;3.83;;;;;;;;;;6228556;23;20706;-94
2022/09/08 03:12:41;;;;;;;4.10;4.00;;;;;;;;;;6264610;23;20431;-96
2022/09/08 03:15:08;;;;;;;3.78;3.58;;;;;;;;;;6235063;23;20370;-94
2022/09/08 03:17:34;;;;;;;3.40;3.40;;;;;;;;;;6260761;23;20360;-94
2022/09/08 03:20:00;;;;;;;5.47;3.80;;;;;;;;;;6263428;23;20354;-94
2022/09/08 03:22:26;;;;;;;3.55;3.35;;;;;;;;;;6242455;23;20342;-95
2022/09/08 03:24:54;;;;;;;3.72;3.63;;;;;;;;;;6267395;22;20417;-91
2022/09/08 03:27:20;;;;;;;3.67;3.53;;;;;;;;;;6233701;23;20365;-96
2022/09/08 03:29:46;;;;;;;3.40;3.30;;;;;;;;;;6230133;23;20354;-94
2022/09/08 03:32:12;;;;;;;3.50;3.30;;;;;;;;;;6232351;23;20391;-94
2022/09/08 03:34:42;;;;;;;3.70;3.60;;;;;;;;;;6226885;23;20451;-95
2022/09/08 03:37:08;;;;;;;3.30;3.20;;;;;;;;;;6227210;23;20358;-95
2022/09/08 03:39:44;;;;;;;3.10;2.80;;;;;;;;;;6223982;23;20374;-95
2022/09/08 03:42:10;;;;;;;2.88;2.78;;;;;;;;;;6251809;23;20334;-94
2022/09/08 03:44:36;;;;;;;2.83;2.70;;;;;;;;;;6228211;23;20346;-95
2022/09/08 03:47:03;;;;;;;2.90;2.70;;;;;;;;;;6229447;23;21124;-94
2022/09/08 03:49:29;;;;;;;2.83;2.72;;;;;;;;;;6226367;23;20366;-96
2022/09/08 03:52:07;;;;;;;2.80;2.60;;;;;;;;;;6226432;23;20378;-94
2022/09/08 03:54:51;;;;;;;2.40;2.30;;;;;;;;;;6230489;23;20370;-92
2022/09/08 03:57:22;;;;;;;2.33;2.23;;;;;;;;;;6230776;23;20842;-95
2022/09/08 04:00:00;;;;;;;2.70;2.60;;;;;;;;;;6232427;23;20428;-91
2022/09/08 04:02:46;;;;;;;2.90;2.80;;;;;;;;;;6234600;22;20389;-94
2022/09/08 04:05:15;;;;;;;3.00;2.90;;;;;;;;;;6236431;23;20374;-95
2022/09/08 04:15:39;;;;;;;2.72;2.63;;;;;;;;;;6267838;22;20402;-95
2022/09/08 04:18:22;;;;;;;2.83;2.72;;;;;;;;;;6240012;23;20372;-94
2022/09/08 04:26:11;;;;;;;2.50;2.40;;;;;;;;;;6228401;22;20413;-95
2022/09/08 04:31:17;;;;;;;2.40;2.30;;;;;;;;;;6299921;22;20395;-93
2022/09/08 04:33:44;;;;;;;2.65;2.55;;;;;;;;;;6270294;22;20368;-92
2022/09/08 04:36:20;;;;;;;2.50;2.40;;;;;;;;;;6297313;22;20462;-95
2022/09/08 04:39:10;;;;;;;2.80;2.70;;;;;;;;;;6271319;22;20375;-93
2022/09/08 04:41:52;;;;;;;2.60;2.50;;;;;;;;;;6270831;22;20400;-92
2022/09/08 04:44:19;;;;;;;2.50;2.50;;;;;;;;;;6270267;22;20689;-94
2022/09/08 04:47:03;;;;;;;2.90;2.80;;;;;;;;;;6269684;22;20356;-95
2022/09/08 04:49:47;;;;;;;;;;;;;;;;;;;;;
2022/09/08 04:52:24;;;;;;;;;;;;;;;;;;;;;
2022/09/08 04:55:01;;;;;;;5.00;4.80;;;;;;;;;;6258867;23;20342;-91
2022/09/08 04:57:28;;;;;;;5.30;4.90;;;;;;;;;;6261781;23;20338;-94
2022/09/08 05:00:07;;;;;;;;;;;;;;;;;;;;;
2022/09/08 05:02:45;;;;;;;6.25;5.75;;;;;;;;;;6254029;23;20353;-95
2022/09/08 05:05:19;;;;;;;7.70;6.90;;;;;;;;;;6226861;23;20364;-94
2022/09/08 05:08:01;;;;;;;7.95;7.22;;;;;;;;;;6228255;23;20370;-95
2022/09/08 05:10:27;;;;;;;7.55;6.90;;;;;;;;;;6251862;23;20350;-95
2022/09/08 05:12:56;;;;;;;8.00;7.20;;;;;;;;;;6224144;23;20874;-94
2022/09/08 05:15:34;;;;;;;8.10;7.60;;;;;;;;;;6245714;23;20345;-95
2022/09/08 05:18:33;;;;;;;8.75;8.00;;;;;;;;;;6249305;23;20440;-96
2022/09/08 05:32:56;;;;;;;11.60;10.60;;;;;;;;;;6254507;22;20464;-94
2022/09/08 05:35:22;;;;;;;9.73;8.85;;;;;;;;;;6225301;23;20400;-93
2022/09/08 05:37:52;;;;;;;11.27;10.18;;;;;;;;;;6224473;23;20374;-94
2022/09/08 05:40:47;;;;;;;13.40;12.00;;;;;;;;;;6219058;23;20345;-94
2022/09/08 05:43:15;;;;;;;15.30;11.45;;;;;;;;;;6155617;23;20661;-94
2022/09/08 05:45:48;;;;;;;9.75;8.90;;;;;;;;;;6247428;23;20362;-93
2022/09/08 05:48:17;;;;;;;9.55;8.85;;;;;;;;;;6220416;23;20399;-95
2022/09/08 05:50:45;;;;;;;11.10;10.20;;;;;;;;;;6219121;23;20366;-93
2022/09/08 05:53:12;;;;;;;12.43;11.30;;;;;;;;;;6251898;23;20338;-91
2022/09/08 05:55:58;;;;;;;13.00;11.90;;;;;;;;;;6230964;23;22292;-95
2022/09/08 05:58:42;;;;;;;12.65;11.55;;;;;;;;;;6231775;23;20381;-95
2022/09/08 06:01:10;;;;;;;14.00;12.60;;;;;;;;;;6219152;23;20416;-94
2022/09/08 06:03:36;;;;;;;11.63;10.63;;;;;;;;;;6229730;23;20366;-92
2022/09/08 06:06:31;;;;;;;11.65;10.65;;;;;;;;;;6267429;23;20364;-94
2022/09/08 06:09:19;;;;;;;13.32;12.02;;;;;;;;;;6233619;23;20350;-95
2022/09/08 06:12:06;;;;;;;12.00;10.93;;;;;;;;;;6254603;23;20373;-95
2022/09/08 06:14:33;;;;;;;11.82;10.63;;;;;;;;;;6235352;23;20358;-84
2022/09/08 06:17:06;;;;;;;11.45;10.40;;;;;;;;;;6182965;22;20440;-94
2022/09/08 06:23:15;;;;;;;12.25;11.05;;;;;;;;;;6203959;23;20379;-94
2022/09/08 06:26:09;;;;;;;11.60;10.50;;;;;;;;;;6201742;23;20397;-94
2022/09/08 06:29:01;;;;;;;12.70;11.50;;;;;;;;;;6205988;23;20382;-96
2022/09/08 06:31:45;;;;;;;;;;;;;;;;;;;;;
2022/09/08 06:34:19;;;;;;;13.55;12.15;;;;;;;;;;6239185;22;20432;-94
2022/09/08 06:36:51;;;;;;;14.88;13.32;;;;;;;;;;6214499;22;20400;-91
2022/09/08 06:39:32;;;;;;;13.95;12.63;;;;;;;;;;6194558;23;20758;-95
2022/09/08 06:42:29;;;;;;;;;;;;;;;;;;;;;
2022/09/08 06:45:06;;;;;;;13.38;12.27;;;;;;;;;;6208399;23;20392;-95
2022/09/08 06:47:42;;;;;;;13.85;12.50;;;;;;;;;;6166757;23;20423;-92
2022/09/08 06:50:22;;;;;;;14.43;12.93;;;;;;;;;;6199056;23;20387;-92
2022/09/08 06:58:10;;;;;;;11.75;10.90;;;;;;;;;;6257369;23;20703;-87
2022/09/08 07:01:09;;;;;;;;;;;;;;;;;;;;;
2022/09/08 07:10:36;;;;;;;11.07;10.23;;;;;;;;;;6255771;22;20436;-94
2022/09/08 07:13:12;;;;;;;9.80;9.00;;;;;;;;;;6234421;23;20377;-94
2022/09/08 07:29:29;;;;;;;10.07;9.18;;;;;;;;;;6241969;22;20762;-90
2022/09/08 07:31:55;;;;;;;9.10;8.30;;;;;;;;;;6221257;22;20411;-90
2022/09/08 07:34:23;;;;;;;7.55;6.95;;;;;;;;;;6203781;23;20422;-94
2022/09/08 07:36:58;;;;;;;9.70;8.80;;;;;;;;;;6197585;23;20390;-93
2022/09/08 07:39:31;;;;;;;7.78;7.00;;;;;;;;;;6218840;23;20371;-92
2022/09/08 07:42:00;;;;;;;10.60;8.75;;;;;;;;;;6221429;23;20336;-92
2022/09/08 07:44:26;;;;;;;13.07;9.80;;;;;;;;;;6188695;23;20438;-91
2022/09/08 07:47:01;;;;;;;10.60;9.30;;;;;;;;;;6187550;23;20787;-90
2022/09/08 07:49:45;;;;;;;7.63;7.03;;;;;;;;;;6190417;23;20375;-93
2022/09/08 07:52:14;;;;;;;9.13;7.90;;;;;;;;;;6196356;23;20391;-93
2022/09/08 07:54:48;;;;;;;8.10;7.30;;;;;;;;;;6228106;23;20357;-93
2022/09/08 07:57:22;;;;;;;9.30;8.50;;;;;;;;;;6200288;23;20708;-93
2022/09/08 07:59:53;;;;;;;9.68;8.88;;;;;;;;;;6229831;23;20351;-92
2022/09/08 08:02:48;;;;;;;10.63;9.50;;;;;;;;;;6198859;23;20356;-92
2022/09/08 08:05:36;;;;;;;11.68;9.50;;;;;;;;;;6180903;23;20379;-92
2022/09/08 08:14:39;;;;;;;9.00;8.13;;;;;;;;;;6208554;23;20335;-87
2022/09/08 08:17:14;;;;;;;7.70;7.10;;;;;;;;;;6205950;23;20820;-86
2022/09/08 08:22:40;;;;;;;9.43;8.48;;;;;;;;;;6198582;23;20347;-91
2022/09/08 08:25:30;;;;;;;8.30;7.60;;;;;;;;;;6189766;23;20371;-90
2022/09/08 08:27:56;;;;;;;8.13;7.50;;;;;;;;;;6190291;23;20414;-92
2022/09/08 08:30:23;;;;;;;8.20;7.60;;;;;;;;;;6188630;23;20414;-92
2022/09/08 08:33:01;;;;;;;8.40;7.80;;;;;;;;;;6189058;23;20450;-93
2022/09/08 08:35:46;;;;;;;9.30;8.40;;;;;;;;;;6193877;23;20384;-95
2022/09/08 08:38:24;;;;;;;8.40;7.70;;;;;;;;;;6188414;23;20877;-93
2022/09/08 08:40:56;;;;;;;8.43;7.72;;;;;;;;;;6183177;23;20402;-91
2022/09/08 08:43:22;;;;;;;6.70;6.10;;;;;;;;;;6210374;23;20363;-91
2022/09/08 08:45:51;;;;;;;5.80;5.40;;;;;;;;;;6184385;23;20885;-91
2022/09/08 08:48:26;;;;;;;6.07;5.47;;;;;;;;;;6213286;23;20352;-90
2022/09/08 08:50:59;;;;;;;5.35;5.03;;;;;;;;;;6185256;23;20366;-88
2022/09/08 08:53:28;;;;;;;5.07;4.80;;;;;;;;;;6186166;23;20413;-91
2022/09/08 08:56:16;;;;;;;4.00;3.78;;;;;;;;;;6185783;23;20677;-91
2022/09/08 08:59:02;;;;;;;2.97;2.88;;;;;;;;;;6208916;23;20371;-91
2022/09/08 09:01:34;;;;;;;2.58;2.38;;;;;;;;;;6203258;23;20347;-91
2022/09/08 09:04:26;;;;;;;3.75;3.45;;;;;;;;;;6213166;23;20799;-91
2022/09/08 09:07:11;;;;;;;3.00;2.80;;;;;;;;;;6192592;23;20385;-91
2022/09/08 09:09:47;;;;;;;2.30;2.30;;;;;;;;;;6191897;23;20385;-91
2022/09/08 09:12:31;;;;;;;2.20;2.10;;;;;;;;;;6189241;23;20434;-93
2022/09/08 09:14:57;;;;;;;2.53;2.33;;;;;;;;;;6185265;23;20409;-92
2022/09/08 09:17:30;;;;;;;2.63;2.53;;;;;;;;;;6186382;23;20447;-91
2022/09/08 09:20:08;;;;;;;2.80;2.70;;;;;;;;;;6184865;23;20372;-90
2022/09/08 09:22:42;;;;;;;2.22;2.22;;;;;;;;;;6190542;23;20364;-91
2022/09/08 09:25:27;;;;;;;1.88;1.88;;;;;;;;;;6189165;23;20359;-91
2022/09/08 09:28:10;;;;;;;2.60;2.40;;;;;;;;;;6186764;23;20423;-92
2022/09/08 09:30:45;;;;;;;2.50;2.40;;;;;;;;;;6186041;23;20410;-90
2022/09/08 09:33:30;;;;;;;2.80;2.50;;;;;;;;;;6190019;23;20800;-91
2022/09/08 09:36:13;;;;;;;2.65;2.45;;;;;;;;;;6216620;23;20364;-91
2022/09/08 09:39:07;;;;;;;2.70;2.70;;;;;;;;;;6192384;23;20395;-90
2022/09/08 09:41:53;;;;;;;3.40;3.20;;;;;;;;;;6190669;23;20449;-91
2022/09/08 09:44:40;;;;;;;3.55;3.25;;;;;;;;;;6187872;23;20367;-90
2022/09/08 09:47:08;;;;;;;3.30;3.20;;;;;;;;;;6189597;23;20366;-91
2022/09/08 09:49:51;;;;;;;2.83;2.63;;;;;;;;;;6186969;23;20414;-91
2022/09/08 09:52:29;;;;;;;2.63;2.53;;;;;;;;;;6188813;23;20403;-90
2022/09/08 09:55:05;;;;;;;3.10;2.90;;;;;;;;;;6180224;23;20435;-89
2022/09/08 09:57:31;;;;;;;2.25;2.05;;;;;;;;;;6183706;23;20390;-89
2022/09/08 10:00:17;;;;;;;1.80;1.80;;;;;;;;;;6180113;23;20367;-90
2022/09/08 10:03:08;;;;;;;2.13;2.00;;;;;;;;;;6185684;23;20375;-90
2022/09/08 10:05:34;;;;;;;2.73;2.00;;;;;;;;;;6189785;23;20580;-91
2022/09/08 10:08:00;;;;;;;2.10;1.90;;;;;;;;;;6216831;23;20409;-90
2022/09/08 10:10:28;;;;;;;1.33;1.23;;;;;;;;;;6190987;23;20464;-91
2022/09/08 10:12:58;;;;;;;;;;;;;;;;;;6189036;23;20566;-91
2022/09/08 10:18:27;;;;;;;1.55;1.55;;;;;;;;;;6212371;23;20363;-92
2022/09/08 10:21:12;;;;;;;2.60;2.40;;;;;;;;;;6194812;23;20784;-89
2022/09/08 10:24:18;;;;;;;1.40;1.40;;;;;;;;;;6199793;23;20375;-94
2022/09/08 10:27:02;;;;;;;1.70;1.70;;;;;;;;;;6223558;23;20494;-91
2022/09/08 10:29:56;;;;;;;1.83;1.73;;;;;;;;;;6197045;23;20362;-92
2022/09/08 10:32:35;;;;;;;2.05;1.95;;;;;;;;;;6199003;23;20387;-91
2022/09/08 10:35:19;;;;;;;1.85;1.80;;;;;;;;;;6224663;23;20350;-90
2022/09/08 10:38:05;;;;;;;1.70;1.60;;;;;;;;;;6194475;23;20352;-91
2022/09/08 10:40:38;;;;;;;2.70;1.80;;;;;;;;;;6206044;23;20343;-92
2022/09/08 10:43:07;;;;;;;2.00;2.00;;;;;;;;;;6201009;22;21932;-90
2022/09/08 10:46:00;;;;;;;2.40;1.80;;;;;;;;;;6253386;23;20394;-92
2022/09/08 10:48:41;;;;;;;3.45;3.35;;;;;;;;;;6246029;23;20364;-91
2022/09/08 10:51:07;;;;;;;4.40;4.10;;;;;;;;;;6197930;23;20446;-89
2022/09/08 10:53:53;;;;;;;2.08;1.98;;;;;;;;;;6195072;23;20433;-91
2022/09/08 10:56:30;;;;;;;1.70;1.60;;;;;;;;;;6199065;23;20427;-91
2022/09/08 10:59:07;;;;;;;1.42;1.20;;;;;;;;;;6198078;23;20367;-92
2022/09/08 11:01:52;;;;;;;1.50;1.40;;;;;;;;;;6193395;23;20390;-90
2022/09/08 11:04:44;;;;;;;1.50;1.40;;;;;;;;;;6196177;23;20407;-90
2022/09/08 11:07:42;;;;;;;1.30;1.30;;;;;;;;;;6192261;23;20360;-90
2022/09/08 11:10:46;;;;;;;1.23;1.23;;;;;;;;;;6133994;23;20429;-90
2022/09/08 11:13:25;;;;;;;1.00;1.00;;;;;;;;;;6187498;23;20391;-91
2022/09/08 11:16:03;;;;;;;1.00;1.00;;;;;;;;;;6188786;23;20441;-91
2022/09/08 11:18:44;;;;;;;1.02;1.02;;;;;;;;;;6189006;23;20455;-91
2022/09/08 11:21:29;;;;;;;1.70;1.60;;;;;;;;;;6188199;23;20360;-92
2022/09/08 11:24:14;;;;;;;1.17;0.98;;;;;;;;;;6189817;23;20713;-91
2022/09/08 11:26:46;;;;;;;1.05;1.05;;;;;;;;;;6187357;23;20950;-91
2022/09/08 11:29:36;;;;;;;0.80;0.80;;;;;;;;;;6189922;23;20446;-89
2022/09/08 11:35:19;;;;;;;1.10;1.10;;;;;;;;;;6205473;23;20352;-93
2022/09/08 11:38:14;;;;;;;0.80;0.80;;;;;;;;;;6192902;23;20363;-92
2022/09/08 11:40:59;;;;;;;0.90;0.90;;;;;;;;;;6189267;23;20368;-93
2022/09/08 11:43:51;;;;;;;0.80;0.80;;;;;;;;;;6186295;23;20387;-90
2022/09/08 11:46:36;;;;;;;0.90;0.90;;;;;;;;;;6186981;23;20391;-92
2022/09/08 11:49:18;;;;;;;0.80;0.80;;;;;;;;;;6187039;23;20410;-92
2022/09/08 11:51:59;;;;;;;1.00;0.90;;;;;;;;;;6184616;23;20384;-91
2022/09/08 11:54:36;;;;;;;1.20;0.90;;;;;;;;;;6188813;23;20740;-90
2022/09/08 11:57:26;;;;;;;0.90;0.90;;;;;;;;;;6209654;23;20359;-89
2022/09/08 12:00:11;;;;;;;0.82;0.82;;;;;;;;;;6182261;23;20374;-90
2022/09/08 12:02:37;;;;;;;3.70;1.00;;;;;;;;;;6186172;23;20363;-88
2022/09/08 12:05:06;;;;;;;0.80;0.80;;;;;;;;;;6184231;23;20913;-90
2022/09/08 12:07:53;;;;;;;1.00;1.00;;;;;;;;;;6182338;23;20356;-90
2022/09/08 12:10:32;;;;;;;0.80;0.73;;;;;;;;;;6178622;23;20438;-92
2022/09/08 12:13:01;;;;;;;2.50;2.40;;;;;;;;;;6183398;23;20486;-89
2022/09/08 12:15:33;;;;;;;1.70;1.00;;;;;;;;;;6206153;23;20414;-90
2022/09/08 12:17:59;;;;;;;1.00;0.90;;;;;;;;;;6179643;23;20372;-90
2022/09/08 12:20:51;;;;;;;1.00;0.90;;;;;;;;;;6179544;23;20632;-91
2022/09/08 12:23:38;;;;;;;0.90;0.90;;;;;;;;;;6204208;23;20421;-90
2022/09/08 12:26:13;;;;;;;0.90;0.90;;;;;;;;;;6183109;23;20395;-91
2022/09/08 12:28:49;;;;;;;1.10;0.90;;;;;;;;;;6208625;23;20382;-91
2022/09/08 12:31:39;;;;;;;1.20;1.20;;;;;;;;;;6180298;23;20426;-91
2022/09/08 12:34:05;;;;;;;1.20;1.20;;;;;;;;;;6200562;23;20352;-91
2022/09/08 12:37:09;;;;;;;1.20;1.20;;;;;;;;;;6187658;23;20363;-90
2022/09/08 12:39:38;;;;;;;0.73;0.73;;;;;;;;;;6120676;23;20365;-89
2022/09/08 12:42:23;;;;;;;0.80;0.80;;;;;;;;;;6193784;23;20368;-91
2022/09/08 12:44:55;;;;;;;1.00;1.00;;;;;;;;;;6187704;23;20387;-92
2022/09/08 12:47:27;;;;;;;1.08;1.08;;;;;;;;;;6187624;23;20368;-93
2022/09/08 12:50:12;;;;;;;0.90;0.90;;;;;;;;;;6185491;23;20948;-91
2022/09/08 12:52:51;;;;;;;0.82;0.82;;;;;;;;;;6183448;23;20411;-88
2022/09/08 12:55:17;;;;;;;0.90;0.90;;;;;;;;;;6184051;23;20406;-88
2022/09/08 12:57:59;;;;;;;1.30;1.30;;;;;;;;;;6186322;23;20360;-92
2022/09/08 13:00:34;;;;;;;0.80;0.80;;;;;;;;;;6207948;23;20414;-91
2022/09/08 13:03:39;;;;;;;0.80;0.80;;;;;;;;;;6211193;23;20359;-90
2022/09/08 13:06:28;;;;;;;0.90;0.90;;;;;;;;;;6115109;23;20455;-90
2022/09/08 13:09:09;;;;;;;1.30;1.20;;;;;;;;;;6120639;23;20999;-90
2022/09/08 13:11:51;;;;;;;1.50;1.20;;;;;;;;;;6183887;23;20375;-90
2022/09/08 13:14:23;;;;;;;1.02;1.02;;;;;;;;;;6185855;23;20699;-89
2022/09/08 13:16:49;;;;;;;2.20;2.10;;;;;;;;;;6208704;23;20617;-88
2022/09/08 13:19:32;;;;;;;1.08;0.98;;;;;;;;;;6182309;23;21093;-87
2022/09/08 13:22:15;;;;;;;1.55;1.45;;;;;;;;;;6180000;23;20363;-87
2022/09/08 13:24:59;;;;;;;1.35;1.08;;;;;;;;;;6183989;23;20364;-88
2022/09/08 13:27:38;;;;;;;1.10;1.10;;;;;;;;;;6184866;23;20368;-88
2022/09/08 13:30:09;;;;;;;1.90;1.80;;;;;;;;;;6186163;23;20359;-92
2022/09/08 13:32:57;;;;;;;2.40;1.20;;;;;;;;;;6186902;23;20379;-91
2022/09/08 13:35:48;;;;;;;1.25;1.08;;;;;;;;;;6181918;23;20367;-90
2022/09/08 13:38:55;;;;;;;1.10;1.10;;;;;;;;;;6211827;23;20355;-89
2022/09/08 13:41:40;;;;;;;0.90;0.90;;;;;;;;;;6114172;23;20452;-91
2022/09/08 13:44:20;;;;;;;1.20;1.00;;;;;;;;;;6114671;23;20508;-91
2022/09/08 13:47:02;;;;;;;0.90;0.90;;;;;;;;;;6113282;23;20368;-91
2022/09/08 13:49:37;;;;;;;1.08;0.80;;;;;;;;;;6116004;23;20527;-91
2022/09/08 13:52:10;;;;;;;1.13;1.03;;;;;;;;;;6136823;23;20383;-91
2022/09/08 13:54:38;;;;;;;1.00;0.95;;;;;;;;;;6209751;23;20437;-90
2022/09/08 13:57:15;;;;;;;0.90;0.90;;;;;;;;;;6208140;23;20434;-92
2022/09/08 14:00:07;;;;;;;0.90;0.90;;;;;;;;;;6183032;23;20914;-91
2022/09/08 14:02:51;;;;;;;1.60;1.30;;;;;;;;;;6170931;23;20382;-92
2022/09/08 14:05:23;;;;;;;0.88;0.63;;;;;;;;;;6179093;23;20441;-90
2022/09/08 14:11:07;;;;;;;1.00;1.00;;;;;;;;;;6184034;23;20832;-91
2022/09/08 14:13:37;;;;;;;1.00;0.90;;;;;;;;;;6187401;23;20363;-92
2022/09/08 14:16:06;;;;;;;1.27;1.27;;;;;;;;;;6183153;23;20355;-90
2022/09/08 14:18:51;;;;;;;1.70;1.10;;;;;;;;;;6211196;23;20340;-91
2022/09/08 14:21:35;;;;;;;179.32;160.90;;;;;;;;;;6208689;23;20452;-91
2022/09/08 14:24:21;;;;;;;1.60;1.00;;;;;;;;;;6185123;23;20368;-91
2022/09/08 14:26:52;;;;;;;4.05;3.78;;;;;;;;;;6207215;23;20425;-89
2022/09/08 14:29:32;;;;;;;1.00;1.00;;;;;;;;;;6210299;23;20351;-90
2022/09/08 14:32:17;;;;;;;1.00;1.00;;;;;;;;;;6206648;23;20446;-91
2022/09/08 14:35:00;;;;;;;2.00;1.10;;;;;;;;;;6208737;23;20350;-91
2022/09/08 14:37:28;;;;;;;1.20;1.10;;;;;;;;;;6210722;23;20356;-89
2022/09/08 14:40:00;;;;;;;1.00;1.00;;;;;;;;;;6214035;23;20362;-91
2022/09/08 14:42:39;;;;;;;1.15;1.05;;;;;;;;;;6214525;23;20348;-90
2022/09/08 14:45:24;;;;;;;1.20;1.00;;;;;;;;;;6192236;23;20383;-90
2022/09/08 14:47:53;;;;;;;1.17;1.17;;;;;;;;;;6195839;23;20352;-93
2022/09/08 14:50:41;;;;;;;2.60;1.60;;;;;;;;;;6215340;23;20379;-89
2022/09/08 14:53:07;;;;;;;1.10;0.95;;;;;;;;;;6188000;23;20422;-87
2022/09/08 14:55:40;;;;;;;2.40;0.87;;;;;;;;;;6184067;23;20804;-90
2022/09/08 14:58:22;;;;;;;1.20;1.10;;;;;;;;;;6212769;23;20335;-90
2022/09/08 15:00:50;;;;;;;1.30;1.20;;;;;;;;;;6176921;23;20811;-90
2022/09/08 15:03:25;;;;;;;2.40;1.60;;;;;;;;;;6189611;23;20402;-89
2022/09/08 15:05:52;;;;;;;0.90;0.90;;;;;;;;;;6187589;23;20356;-90
2022/09/08 15:08:18;;;;;;;1.08;1.08;;;;;;;;;;6188430;23;20379;-94
2022/09/08 15:10:57;;;;;;;2.60;1.33;;;;;;;;;;6191534;23;20359;-90
2022/09/08 15:13:51;;;;;;;1.05;1.05;;;;;;;;;;6189732;23;20368;-90
2022/09/08 15:16:26;;;;;;;2.92;1.25;;;;;;;;;;6185263;23;20348;-87
2022/09/08 15:19:05;;;;;;;1.10;1.10;;;;;;;;;;6189647;23;20390;-94
2022/09/08 15:21:46;;;;;;;2.20;1.25;;;;;;;;;;6191008;23;20356;-94
2022/09/08 15:24:31;;;;;;;1.17;0.90;;;;;;;;;;6191508;23;20351;-95
2022/09/08 15:27:00;;;;;;;2.00;1.05;;;;;;;;;;6193570;23;20787;-90
2022/09/08 15:29:44;;;;;;;1.58;0.90;;;;;;;;;;6194453;23;20858;-94
2022/09/08 15:32:21;;;;;;;2.15;1.17;;;;;;;;;;6192199;23;20462;-89
2022/09/08 15:34:51;;;;;;;1.60;1.15;;;;;;;;;;6221667;23;20347;-93
2022/09/08 15:37:27;;;;;;;5.40;4.93;;;;;;;;;;6191925;23;20835;-93
2022/09/08 15:40:12;;;;;;;2.60;2.40;;;;;;;;;;6196423;23;20371;-91
2022/09/08 15:42:56;;;;;;;2.10;1.53;;;;;;;;;;6194070;23;20356;-91
2022/09/08 15:45:34;;;;;;;3.57;2.10;;;;;;;;;;6222121;23;20394;-95
2022/09/08 15:48:17;;;;;;;2.35;1.60;;;;;;;;;;6196031;23;20392;-94
2022/09/08 15:51:03;;;;;;;1.20;1.00;;;;;;;;;;6198595;23;20364;-93
2022/09/08 15:53:45;;;;;;;2.80;1.30;;;;;;;;;;6197684;23;20410;-91
2022/09/08 15:56:27;;;;;;;1.60;1.00;;;;;;;;;;6211079;23;20405;-86
2022/09/08 15:58:59;;;;;;;3.70;1.45;;;;;;;;;;6183634;23;20360;-87
2022/09/08 16:01:37;;;;;;;1.20;1.10;;;;;;;;;;6205190;23;21120;-92
2022/09/08 16:04:15;;;;;;;1.60;0.97;;;;;;;;;;6191470;23;20379;-90
2022/09/08 16:07:03;;;;;;;1.58;1.10;;;;;;;;;;6190410;23;20356;-92
2022/09/08 16:12:39;;;;;;;;;;;;;;;;;;;;;
2022/09/08 16:39:23;;;;;;;1.30;1.20;;;;;;;;;;6234368;22;20469;-94
2022/09/08 17:06:01;;;;;;;2.40;1.80;;;;;;;;;;6234713;22;20424;-95
2022/09/08 17:08:31;;;;;;;1.30;1.20;;;;;;;;;;6233242;23;20159;-91
2022/09/08 17:11:07;;;;;;;2.43;1.40;;;;;;;;;;6229359;23;20429;-91
2022/09/08 17:13:45;;;;;;;1.27;1.27;;;;;;;;;;6225508;23;20439;-92
2022/09/08 17:16:15;;;;;;;4.93;1.60;;;;;;;;;;6223218;23;20478;-91
2022/09/08 17:18:52;;;;;;;3.53;1.80;;;;;;;;;;6251884;23;20457;-89
2022/09/08 17:21:36;;;;;;;3.60;2.40;;;;;;;;;;6228056;23;20374;-94
2022/09/08 17:24:28;;;;;;;1.30;1.30;;;;;;;;;;6228529;23;20424;-94
2022/09/08 17:27:23;;;;;;;3.50;1.60;;;;;;;;;;6252295;23;20500;-94
2022/09/08 17:30:20;;;;;;;1.50;1.40;;;;;;;;;;6225750;23;20366;-92
2022/09/08 17:33:07;;;;;;;1.65;1.30;;;;;;;;;;6225440;23;20389;-93
2022/09/08 17:35:42;;;;;;;1.42;1.40;;;;;;;;;;6214124;23;20370;-94
2022/09/08 17:38:14;;;;;;;1.35;1.35;;;;;;;;;;6219192;23;20461;-92
2022/09/08 17:40:54;;;;;;;1.80;1.70;;;;;;;;;;6222701;23;20412;-94
2022/09/08 17:43:53;;;;;;;1.30;1.30;;;;;;;;;;6223069;23;20382;-93
2022/09/08 17:46:55;;;;;;;4.03;2.22;;;;;;;;;;6224701;23;20365;-94
2022/09/08 17:49:54;;;;;;;2.40;1.70;;;;;;;;;;6163921;23;20608;-94
2022/09/08 17:52:44;;;;;;;2.17;1.60;;;;;;;;;;6138987;23;20711;-93
2022/09/08 17:55:47;;;;;;;2.45;2.10;;;;;;;;;;6135884;23;20704;-92
2022/09/08 17:58:40;;;;;;;1.90;1.50;;;;;;;;;;6136029;23;20374;-91
2022/09/08 18:01:56;;;;;;;2.08;1.55;;;;;;;;;;6155271;23;20631;-93
2022/09/08 18:05:01;;;;;;;1.63;1.53;;;;;;;;;;6094743;23;20373;-92
2022/09/08 18:07:52;;;;;;;2.00;1.90;;;;;;;;;;6036474;23;20476;-93
2022/09/08 18:10:51;;;;;;;1.98;1.77;;;;;;;;;;6088820;23;20367;-91
2022/09/08 18:13:50;;;;;;;1.98;1.98;;;;;;;;;;6207363;23;20495;-90
2022/09/08 18:16:45;;;;;;;;;;;;;;;;;;;;;
2022/09/08 18:20:04;;;;;;;2.90;2.70;;;;;;;;;;6262625;23;20802;-93
2022/09/08 18:28:52;;;;;;;2.50;2.20;;;;;;;;;;6259764;23;20419;-94
2022/09/08 18:31:55;;;;;;;4.47;2.65;;;;;;;;;;6236295;23;20413;-94
2022/09/08 18:37:52;;;;;;;3.72;3.42;;;;;;;;;;6211189;22;20405;-94
2022/09/08 18:40:32;;;;;;;3.60;3.30;;;;;;;;;;6259532;22;20369;-93
2022/09/08 18:43:10;;;;;;;3.05;2.72;;;;;;;;;;6253828;23;20374;-94
2022/09/08 18:45:55;;;;;;;2.87;2.67;;;;;;;;;;6259363;23;20387;-95
2022/09/08 18:48:35;;;;;;;2.70;2.60;;;;;;;;;;6250044;23;20360;-95
2022/09/08 18:51:21;;;;;;;2.70;2.55;;;;;;;;;;6197310;23;20375;-96
2022/09/08 18:54:08;;;;;;;2.30;1.90;;;;;;;;;;6197221;23;20382;-95
2022/09/08 18:56:54;;;;;;;3.38;3.15;;;;;;;;;;6197401;23;20364;-93
2022/09/08 18:59:27;;;;;;;4.90;3.60;;;;;;;;;;6197203;23;20358;-94
2022/09/08 19:02:17;;;;;;;2.90;2.50;;;;;;;;;;6192640;23;20359;-94
2022/09/08 19:04:56;;;;;;;2.30;2.20;;;;;;;;;;6221820;23;20368;-94
2022/09/08 19:07:47;;;;;;;4.93;4.68;;;;;;;;;;6206462;23;20383;-93
2022/09/08 19:13:50;;;;;;;4.60;4.40;;;;;;;;;;6214976;23;20407;-95
2022/09/08 19:16:52;;;;;;;2.80;2.22;;;;;;;;;;6204039;23;20355;-92
2022/09/08 19:25:05;;;;;;;3.60;2.47;;;;;;;;;;6258156;22;20390;-96
2022/09/08 19:27:36;;;;;;;2.30;2.10;;;;;;;;;;6228201;23;20366;-94
2022/09/08 19:30:22;;;;;;;2.60;2.40;;;;;;;;;;6232146;23;20445;-93
2022/09/08 19:33:16;;;;;;;2.53;2.53;;;;;;;;;;6240384;23;20361;-94
2022/09/08 19:35:59;;;;;;;5.20;4.95;;;;;;;;;;6258032;23;20373;-95
2022/09/08 19:38:32;;;;;;;3.85;3.50;;;;;;;;;;6212857;23;20366;-96
2022/09/08 19:41:21;;;;;;;3.50;3.30;;;;;;;;;;6238138;23;20381;-95
2022/09/08 20:04:52;;;;;;;3.45;3.35;;;;;;;;;;6230269;22;20413;-91
2022/09/08 20:07:51;;;;;;;3.63;3.33;;;;;;;;;;6226942;23;20370;-91
2022/09/08 20:10:36;;;;;;;3.23;3.03;;;;;;;;;;6098762;23;20374;-92
2022/09/08 20:13:33;;;;;;;;;;;;;;;;;;;;;
2022/09/08 20:16:43;;;;;;;2.80;2.75;;;;;;;;;;6094016;23;20432;-91
2022/09/08 20:19:39;;;;;;;3.00;2.90;;;;;;;;;;6057935;23;21120;-89
2022/09/08 20:22:29;;;;;;;3.33;3.22;;;;;;;;;;6219822;23;20441;-92
2022/09/08 20:25:01;;;;;;;3.08;2.90;;;;;;;;;;6220117;23;20416;-90